sensor_id;sensor_type;location;lat;lon;timestamp;P1;durP1;ratioP1;P2;durP2;ratioP2
56122;SDS011;42426;46.104;19.656;2022-12-10T00:01:28;27.00;;;14.70;;
56122;SDS011;42426;46.104;19.656;2022-12-10T00:03:55;27.70;;;12.25;;
56122;SDS011;42426;46.104;19.656;2022-12-10T00:06:23;20.65;;;11.10;;
56122;SDS011;42426;46.104;19.656;2022-12-10T00:08:51;21.70;;;12.48;;
56122;SDS011;42426;46.104;19.656;2022-12-10T00:11:19;23.80;;;11.45;;
56122;SDS011;42426;46.104;19.656;2022-12-10T00:13:46;23.45;;;11.02;;
56122;SDS011;42426;46.104;19.656;2022-12-10T00:16:14;22.17;;;11.30;;
56122;SDS011;42426;46.104;19.656;2022-12-10T00:18:42;22.75;;;12.70;;
56122;SDS011;42426;46.104;19.656;2022-12-10T00:21:10;25.70;;;12.05;;
56122;SDS011;42426;46.104;19.656;2022-12-10T00:23:38;25.38;;;11.55;;
56122;SDS011;42426;46.104;19.656;2022-12-10T00:26:10;22.98;;;13.57;;
56122;SDS011;42426;46.104;19.656;2022-12-10T00:28:41;34.53;;;14.68;;
56122;SDS011;42426;46.104;19.656;2022-12-10T00:31:11;28.92;;;14.95;;
56122;SDS011;42426;46.104;19.656;2022-12-10T00:33:38;30.45;;;14.80;;
56122;SDS011;42426;46.104;19.656;2022-12-10T00:36:09;27.92;;;13.00;;
56122;SDS011;42426;46.104;19.656;2022-12-10T00:38:37;25.67;;;12.88;;
56122;SDS011;42426;46.104;19.656;2022-12-10T00:41:04;22.30;;;13.75;;
56122;SDS011;42426;46.104;19.656;2022-12-10T00:43:30;25.02;;;12.73;;
56122;SDS011;42426;46.104;19.656;2022-12-10T00:45:56;23.95;;;10.32;;
56122;SDS011;42426;46.104;19.656;2022-12-10T00:48:23;27.10;;;9.73;;
56122;SDS011;42426;46.104;19.656;2022-12-10T00:53:20;23.00;;;12.10;;
56122;SDS011;42426;46.104;19.656;2022-12-10T00:55:45;19.85;;;11.35;;
56122;SDS011;42426;46.104;19.656;2022-12-10T00:58:11;25.80;;;11.27;;
56122;SDS011;42426;46.104;19.656;2022-12-10T01:00:37;30.55;;;12.80;;
56122;SDS011;42426;46.104;19.656;2022-12-10T01:03:03;28.15;;;12.13;;
56122;SDS011;42426;46.104;19.656;2022-12-10T01:05:29;21.90;;;11.68;;
56122;SDS011;42426;46.104;19.656;2022-12-10T01:07:54;19.85;;;10.38;;
56122;SDS011;42426;46.104;19.656;2022-12-10T01:10:20;17.42;;;9.32;;
56122;SDS011;42426;46.104;19.656;2022-12-10T01:12:47;24.83;;;10.27;;
56122;SDS011;42426;46.104;19.656;2022-12-10T01:15:13;19.30;;;10.43;;
56122;SDS011;42426;46.104;19.656;2022-12-10T01:17:41;28.08;;;11.48;;
56122;SDS011;42426;46.104;19.656;2022-12-10T01:20:07;19.83;;;10.43;;
56122;SDS011;42426;46.104;19.656;2022-12-10T01:22:35;18.50;;;9.48;;
56122;SDS011;42426;46.104;19.656;2022-12-10T01:25:01;22.15;;;11.23;;
56122;SDS011;42426;46.104;19.656;2022-12-10T01:27:27;26.65;;;11.85;;
56122;SDS011;42426;46.104;19.656;2022-12-10T01:29:53;25.42;;;11.70;;
56122;SDS011;42426;46.104;19.656;2022-12-10T01:32:19;19.42;;;11.18;;
56122;SDS011;42426;46.104;19.656;2022-12-10T01:34:47;24.15;;;11.23;;
56122;SDS011;42426;46.104;19.656;2022-12-10T01:37:13;24.05;;;11.13;;
56122;SDS011;42426;46.104;19.656;2022-12-10T01:39:39;21.35;;;12.30;;
56122;SDS011;42426;46.104;19.656;2022-12-10T01:42:05;22.67;;;11.52;;
56122;SDS011;42426;46.104;19.656;2022-12-10T01:46:58;22.27;;;12.85;;
56122;SDS011;42426;46.104;19.656;2022-12-10T01:49:27;28.88;;;13.73;;
56122;SDS011;42426;46.104;19.656;2022-12-10T01:51:59;20.42;;;11.73;;
56122;SDS011;42426;46.104;19.656;2022-12-10T01:54:32;23.52;;;12.90;;
56122;SDS011;42426;46.104;19.656;2022-12-10T01:57:05;23.20;;;11.82;;
56122;SDS011;42426;46.104;19.656;2022-12-10T01:59:33;24.92;;;12.85;;
56122;SDS011;42426;46.104;19.656;2022-12-10T02:02:22;27.33;;;13.60;;
56122;SDS011;42426;46.104;19.656;2022-12-10T02:14:04;21.33;;;13.13;;
56122;SDS011;42426;46.104;19.656;2022-12-10T02:16:34;22.80;;;12.25;;
56122;SDS011;42426;46.104;19.656;2022-12-10T02:21:55;23.55;;;13.35;;
56122;SDS011;42426;46.104;19.656;2022-12-10T02:24:26;31.02;;;14.13;;
56122;SDS011;42426;46.104;19.656;2022-12-10T02:26:58;30.25;;;14.32;;
56122;SDS011;42426;46.104;19.656;2022-12-10T02:29:27;27.30;;;13.68;;
56122;SDS011;42426;46.104;19.656;2022-12-10T02:34:48;32.83;;;15.10;;
56122;SDS011;42426;46.104;19.656;2022-12-10T02:37:21;26.58;;;13.25;;
56122;SDS011;42426;46.104;19.656;2022-12-10T02:39:53;23.60;;;13.25;;
56122;SDS011;42426;46.104;19.656;2022-12-10T02:42:21;32.17;;;13.52;;
56122;SDS011;42426;46.104;19.656;2022-12-10T02:44:49;26.65;;;14.43;;
56122;SDS011;42426;46.104;19.656;2022-12-10T02:47:16;28.67;;;15.05;;
56122;SDS011;42426;46.104;19.656;2022-12-10T02:49:43;26.08;;;13.75;;
56122;SDS011;42426;46.104;19.656;2022-12-10T02:52:12;23.50;;;14.27;;
56122;SDS011;42426;46.104;19.656;2022-12-10T02:54:41;27.10;;;14.13;;
56122;SDS011;42426;46.104;19.656;2022-12-10T03:02:34;24.92;;;14.77;;
56122;SDS011;42426;46.104;19.656;2022-12-10T03:08:03;25.13;;;13.57;;
56122;SDS011;42426;46.104;19.656;2022-12-10T03:13:36;24.70;;;13.13;;
56122;SDS011;42426;46.104;19.656;2022-12-10T03:16:05;24.70;;;14.48;;
56122;SDS011;42426;46.104;19.656;2022-12-10T03:18:32;21.33;;;13.40;;
56122;SDS011;42426;46.104;19.656;2022-12-10T03:21:01;26.98;;;15.25;;
56122;SDS011;42426;46.104;19.656;2022-12-10T03:23:30;23.50;;;13.68;;
56122;SDS011;42426;46.104;19.656;2022-12-10T03:25:59;27.20;;;14.00;;
56122;SDS011;42426;46.104;19.656;2022-12-10T03:28:27;21.65;;;12.70;;
56122;SDS011;42426;46.104;19.656;2022-12-10T03:30:56;27.08;;;14.32;;
56122;SDS011;42426;46.104;19.656;2022-12-10T03:33:23;23.15;;;13.32;;
56122;SDS011;42426;46.104;19.656;2022-12-10T03:35:49;25.95;;;15.13;;
56122;SDS011;42426;46.104;19.656;2022-12-10T03:38:15;24.05;;;13.15;;
56122;SDS011;42426;46.104;19.656;2022-12-10T03:40:41;20.70;;;13.27;;
56122;SDS011;42426;46.104;19.656;2022-12-10T03:43:11;19.90;;;12.40;;
56122;SDS011;42426;46.104;19.656;2022-12-10T03:45:38;24.77;;;12.07;;
56122;SDS011;42426;46.104;19.656;2022-12-10T03:48:05;20.73;;;12.55;;
56122;SDS011;42426;46.104;19.656;2022-12-10T03:50:31;29.95;;;13.70;;
56122;SDS011;42426;46.104;19.656;2022-12-10T03:52:58;26.70;;;13.30;;
56122;SDS011;42426;46.104;19.656;2022-12-10T03:55:24;25.10;;;12.80;;
56122;SDS011;42426;46.104;19.656;2022-12-10T03:57:49;20.65;;;11.60;;
56122;SDS011;42426;46.104;19.656;2022-12-10T04:00:15;17.52;;;11.68;;
56122;SDS011;42426;46.104;19.656;2022-12-10T04:02:41;32.45;;;12.88;;
56122;SDS011;42426;46.104;19.656;2022-12-10T04:05:08;24.10;;;14.20;;
56122;SDS011;42426;46.104;19.656;2022-12-10T04:07:34;20.85;;;11.95;;
56122;SDS011;42426;46.104;19.656;2022-12-10T04:10:00;22.83;;;13.15;;
56122;SDS011;42426;46.104;19.656;2022-12-10T04:12:25;25.77;;;14.43;;
56122;SDS011;42426;46.104;19.656;2022-12-10T04:14:51;29.75;;;14.82;;
56122;SDS011;42426;46.104;19.656;2022-12-10T04:17:35;21.02;;;12.95;;
56122;SDS011;42426;46.104;19.656;2022-12-10T04:20:01;29.45;;;15.25;;
56122;SDS011;42426;46.104;19.656;2022-12-10T04:22:28;24.52;;;12.95;;
56122;SDS011;42426;46.104;19.656;2022-12-10T04:25:13;25.20;;;14.65;;
56122;SDS011;42426;46.104;19.656;2022-12-10T04:28:02;27.38;;;16.48;;
56122;SDS011;42426;46.104;19.656;2022-12-10T04:30:28;28.08;;;16.92;;
56122;SDS011;42426;46.104;19.656;2022-12-10T04:32:54;28.85;;;16.00;;
56122;SDS011;42426;46.104;19.656;2022-12-10T04:35:19;27.30;;;16.17;;
56122;SDS011;42426;46.104;19.656;2022-12-10T04:37:45;39.70;;;17.88;;
56122;SDS011;42426;46.104;19.656;2022-12-10T04:40:11;33.08;;;15.18;;
56122;SDS011;42426;46.104;19.656;2022-12-10T04:42:37;28.35;;;16.35;;
56122;SDS011;42426;46.104;19.656;2022-12-10T04:45:02;26.23;;;16.55;;
56122;SDS011;42426;46.104;19.656;2022-12-10T04:47:29;30.42;;;15.90;;
56122;SDS011;42426;46.104;19.656;2022-12-10T04:49:54;30.98;;;16.65;;
56122;SDS011;42426;46.104;19.656;2022-12-10T04:52:20;29.48;;;15.20;;
56122;SDS011;42426;46.104;19.656;2022-12-10T04:54:46;28.25;;;14.73;;
56122;SDS011;42426;46.104;19.656;2022-12-10T04:57:12;24.67;;;15.15;;
56122;SDS011;42426;46.104;19.656;2022-12-10T04:59:39;28.65;;;19.67;;
56122;SDS011;42426;46.104;19.656;2022-12-10T05:02:06;35.40;;;19.25;;
56122;SDS011;42426;46.104;19.656;2022-12-10T05:04:32;35.08;;;18.17;;
56122;SDS011;42426;46.104;19.656;2022-12-10T05:06:58;32.72;;;18.20;;
56122;SDS011;42426;46.104;19.656;2022-12-10T05:09:24;30.27;;;17.55;;
56122;SDS011;42426;46.104;19.656;2022-12-10T05:11:50;31.85;;;18.95;;
56122;SDS011;42426;46.104;19.656;2022-12-10T05:14:16;31.63;;;17.63;;
56122;SDS011;42426;46.104;19.656;2022-12-10T05:16:42;27.85;;;18.33;;
56122;SDS011;42426;46.104;19.656;2022-12-10T05:19:08;34.83;;;19.05;;
56122;SDS011;42426;46.104;19.656;2022-12-10T05:21:36;33.13;;;17.33;;
56122;SDS011;42426;46.104;19.656;2022-12-10T05:24:20;30.83;;;17.88;;
56122;SDS011;42426;46.104;19.656;2022-12-10T05:26:46;32.97;;;18.85;;
56122;SDS011;42426;46.104;19.656;2022-12-10T05:29:15;39.50;;;23.05;;
56122;SDS011;42426;46.104;19.656;2022-12-10T05:31:41;35.05;;;20.25;;
56122;SDS011;42426;46.104;19.656;2022-12-10T05:34:08;37.97;;;21.63;;
56122;SDS011;42426;46.104;19.656;2022-12-10T05:36:36;36.25;;;20.50;;
56122;SDS011;42426;46.104;19.656;2022-12-10T05:39:02;38.03;;;22.30;;
56122;SDS011;42426;46.104;19.656;2022-12-10T05:41:30;34.60;;;18.50;;
56122;SDS011;42426;46.104;19.656;2022-12-10T05:43:58;37.53;;;20.90;;
56122;SDS011;42426;46.104;19.656;2022-12-10T05:46:25;43.53;;;23.25;;
56122;SDS011;42426;46.104;19.656;2022-12-10T05:48:53;45.03;;;24.45;;
56122;SDS011;42426;46.104;19.656;2022-12-10T05:51:20;46.30;;;25.27;;
56122;SDS011;42426;46.104;19.656;2022-12-10T05:53:47;41.08;;;25.33;;
56122;SDS011;42426;46.104;19.656;2022-12-10T05:56:14;37.53;;;23.75;;
56122;SDS011;42426;46.104;19.656;2022-12-10T05:58:43;34.78;;;23.73;;
56122;SDS011;42426;46.104;19.656;2022-12-10T06:01:12;31.80;;;19.67;;
56122;SDS011;42426;46.104;19.656;2022-12-10T06:03:39;40.08;;;22.42;;
56122;SDS011;42426;46.104;19.656;2022-12-10T06:06:06;39.97;;;21.85;;
56122;SDS011;42426;46.104;19.656;2022-12-10T06:08:32;39.67;;;26.45;;
56122;SDS011;42426;46.104;19.656;2022-12-10T06:11:02;49.90;;;27.65;;
56122;SDS011;42426;46.104;19.656;2022-12-10T06:13:29;44.65;;;24.60;;
56122;SDS011;42426;46.104;19.656;2022-12-10T06:15:55;47.83;;;26.38;;
56122;SDS011;42426;46.104;19.656;2022-12-10T06:18:21;41.40;;;24.77;;
56122;SDS011;42426;46.104;19.656;2022-12-10T06:20:47;50.83;;;29.23;;
56122;SDS011;42426;46.104;19.656;2022-12-10T06:23:13;49.20;;;29.73;;
56122;SDS011;42426;46.104;19.656;2022-12-10T06:25:39;41.55;;;25.33;;
56122;SDS011;42426;46.104;19.656;2022-12-10T06:28:07;45.83;;;25.83;;
56122;SDS011;42426;46.104;19.656;2022-12-10T06:30:34;46.88;;;30.23;;
56122;SDS011;42426;46.104;19.656;2022-12-10T06:33:00;72.97;;;40.83;;
56122;SDS011;42426;46.104;19.656;2022-12-10T06:35:26;90.47;;;53.47;;
56122;SDS011;42426;46.104;19.656;2022-12-10T06:37:52;94.45;;;55.25;;
56122;SDS011;42426;46.104;19.656;2022-12-10T06:40:18;71.82;;;39.55;;
56122;SDS011;42426;46.104;19.656;2022-12-10T06:42:43;68.93;;;40.88;;
56122;SDS011;42426;46.104;19.656;2022-12-10T06:45:09;77.80;;;45.08;;
56122;SDS011;42426;46.104;19.656;2022-12-10T06:47:36;57.97;;;37.00;;
56122;SDS011;42426;46.104;19.656;2022-12-10T06:50:02;64.85;;;40.70;;
56122;SDS011;42426;46.104;19.656;2022-12-10T06:52:28;57.80;;;36.08;;
56122;SDS011;42426;46.104;19.656;2022-12-10T06:54:54;63.45;;;37.10;;
56122;SDS011;42426;46.104;19.656;2022-12-10T06:57:20;63.58;;;38.53;;
56122;SDS011;42426;46.104;19.656;2022-12-10T06:59:46;68.22;;;39.90;;
56122;SDS011;42426;46.104;19.656;2022-12-10T07:02:13;64.85;;;38.50;;
56122;SDS011;42426;46.104;19.656;2022-12-10T07:04:39;64.47;;;40.00;;
56122;SDS011;42426;46.104;19.656;2022-12-10T07:07:05;58.60;;;39.03;;
56122;SDS011;42426;46.104;19.656;2022-12-10T07:09:32;55.60;;;36.45;;
56122;SDS011;42426;46.104;19.656;2022-12-10T07:11:58;52.88;;;33.92;;
56122;SDS011;42426;46.104;19.656;2022-12-10T07:14:24;60.45;;;35.67;;
56122;SDS011;42426;46.104;19.656;2022-12-10T07:16:51;54.72;;;34.38;;
56122;SDS011;42426;46.104;19.656;2022-12-10T07:19:17;56.72;;;34.50;;
56122;SDS011;42426;46.104;19.656;2022-12-10T07:21:43;58.75;;;37.35;;
56122;SDS011;42426;46.104;19.656;2022-12-10T07:24:12;57.70;;;36.90;;
56122;SDS011;42426;46.104;19.656;2022-12-10T07:26:41;69.70;;;45.33;;
56122;SDS011;42426;46.104;19.656;2022-12-10T07:29:09;91.68;;;58.00;;
56122;SDS011;42426;46.104;19.656;2022-12-10T07:31:39;88.60;;;58.95;;
56122;SDS011;42426;46.104;19.656;2022-12-10T07:34:05;86.03;;;56.22;;
56122;SDS011;42426;46.104;19.656;2022-12-10T07:36:31;82.03;;;53.42;;
56122;SDS011;42426;46.104;19.656;2022-12-10T07:38:57;87.40;;;56.47;;
56122;SDS011;42426;46.104;19.656;2022-12-10T07:41:23;95.40;;;61.45;;
56122;SDS011;42426;46.104;19.656;2022-12-10T07:43:50;91.70;;;60.45;;
56122;SDS011;42426;46.104;19.656;2022-12-10T07:46:17;104.25;;;60.67;;
56122;SDS011;42426;46.104;19.656;2022-12-10T07:48:49;99.18;;;59.92;;
56122;SDS011;42426;46.104;19.656;2022-12-10T07:51:16;108.68;;;64.60;;
56122;SDS011;42426;46.104;19.656;2022-12-10T07:53:44;94.40;;;57.55;;
56122;SDS011;42426;46.104;19.656;2022-12-10T07:56:09;419.55;;;260.60;;
56122;SDS011;42426;46.104;19.656;2022-12-10T07:58:36;141.45;;;81.93;;
56122;SDS011;42426;46.104;19.656;2022-12-10T08:01:06;78.38;;;49.38;;
56122;SDS011;42426;46.104;19.656;2022-12-10T08:03:33;64.95;;;40.30;;
56122;SDS011;42426;46.104;19.656;2022-12-10T08:06:02;46.67;;;29.50;;
56122;SDS011;42426;46.104;19.656;2022-12-10T08:08:32;40.75;;;24.98;;
56122;SDS011;42426;46.104;19.656;2022-12-10T08:10:59;39.55;;;23.35;;
56122;SDS011;42426;46.104;19.656;2022-12-10T08:13:26;37.13;;;23.45;;
56122;SDS011;42426;46.104;19.656;2022-12-10T08:15:53;28.33;;;19.77;;
56122;SDS011;42426;46.104;19.656;2022-12-10T08:18:19;34.90;;;23.63;;
56122;SDS011;42426;46.104;19.656;2022-12-10T08:20:45;37.35;;;26.30;;
56122;SDS011;42426;46.104;19.656;2022-12-10T08:23:11;32.50;;;24.48;;
56122;SDS011;42426;46.104;19.656;2022-12-10T08:25:37;26.38;;;18.58;;
56122;SDS011;42426;46.104;19.656;2022-12-10T08:28:03;30.13;;;18.55;;
56122;SDS011;42426;46.104;19.656;2022-12-10T08:30:29;23.13;;;16.55;;
56122;SDS011;42426;46.104;19.656;2022-12-10T08:32:55;29.65;;;19.25;;
56122;SDS011;42426;46.104;19.656;2022-12-10T08:35:21;23.40;;;15.88;;
56122;SDS011;42426;46.104;19.656;2022-12-10T08:37:47;20.42;;;15.65;;
56122;SDS011;42426;46.104;19.656;2022-12-10T08:40:12;24.50;;;16.63;;
56122;SDS011;42426;46.104;19.656;2022-12-10T08:42:38;26.50;;;17.67;;
56122;SDS011;42426;46.104;19.656;2022-12-10T08:45:04;26.45;;;18.77;;
56122;SDS011;42426;46.104;19.656;2022-12-10T08:47:30;28.90;;;19.17;;
56122;SDS011;42426;46.104;19.656;2022-12-10T08:49:56;30.83;;;19.73;;
56122;SDS011;42426;46.104;19.656;2022-12-10T08:52:22;23.77;;;16.85;;
56122;SDS011;42426;46.104;19.656;2022-12-10T08:54:48;29.75;;;18.73;;
56122;SDS011;42426;46.104;19.656;2022-12-10T08:57:14;26.65;;;18.00;;
56122;SDS011;42426;46.104;19.656;2022-12-10T08:59:39;29.42;;;19.73;;
56122;SDS011;42426;46.104;19.656;2022-12-10T09:02:05;25.00;;;18.83;;
56122;SDS011;42426;46.104;19.656;2022-12-10T09:04:33;27.15;;;18.77;;
56122;SDS011;42426;46.104;19.656;2022-12-10T09:06:59;27.48;;;17.70;;
56122;SDS011;42426;46.104;19.656;2022-12-10T09:09:26;26.75;;;17.23;;
56122;SDS011;42426;46.104;19.656;2022-12-10T09:11:54;26.20;;;17.25;;
56122;SDS011;42426;46.104;19.656;2022-12-10T09:14:20;35.95;;;20.63;;
56122;SDS011;42426;46.104;19.656;2022-12-10T09:16:45;33.03;;;21.20;;
56122;SDS011;42426;46.104;19.656;2022-12-10T09:19:11;33.42;;;20.25;;
56122;SDS011;42426;46.104;19.656;2022-12-10T09:21:37;31.50;;;19.60;;
56122;SDS011;42426;46.104;19.656;2022-12-10T09:24:03;28.48;;;18.98;;
56122;SDS011;42426;46.104;19.656;2022-12-10T09:26:29;29.67;;;20.55;;
56122;SDS011;42426;46.104;19.656;2022-12-10T09:28:55;35.17;;;23.48;;
56122;SDS011;42426;46.104;19.656;2022-12-10T09:31:23;39.10;;;26.42;;
56122;SDS011;42426;46.104;19.656;2022-12-10T09:33:49;39.00;;;26.98;;
56122;SDS011;42426;46.104;19.656;2022-12-10T09:36:17;38.85;;;23.92;;
56122;SDS011;42426;46.104;19.656;2022-12-10T09:38:44;31.13;;;21.90;;
56122;SDS011;42426;46.104;19.656;2022-12-10T09:41:27;36.70;;;23.30;;
56122;SDS011;42426;46.104;19.656;2022-12-10T09:52:23;35.60;;;24.77;;
56122;SDS011;42426;46.104;19.656;2022-12-10T09:54:58;36.65;;;22.85;;
56122;SDS011;42426;46.104;19.656;2022-12-10T10:02:56;32.45;;;22.83;;
56122;SDS011;42426;46.104;19.656;2022-12-10T10:05:31;31.40;;;20.50;;
56122;SDS011;42426;46.104;19.656;2022-12-10T10:08:01;29.70;;;20.90;;
56122;SDS011;42426;46.104;19.656;2022-12-10T10:10:33;33.78;;;22.00;;
56122;SDS011;42426;46.104;19.656;2022-12-10T10:15:37;35.38;;;21.58;;
56122;SDS011;42426;46.104;19.656;2022-12-10T10:18:20;30.67;;;20.05;;
56122;SDS011;42426;46.104;19.656;2022-12-10T10:20:59;35.67;;;20.55;;
56122;SDS011;42426;46.104;19.656;2022-12-10T10:23:25;36.85;;;19.98;;
56122;SDS011;42426;46.104;19.656;2022-12-10T10:25:51;30.75;;;18.52;;
56122;SDS011;42426;46.104;19.656;2022-12-10T10:28:21;36.47;;;22.58;;
56122;SDS011;42426;46.104;19.656;2022-12-10T10:30:48;35.80;;;21.48;;
56122;SDS011;42426;46.104;19.656;2022-12-10T10:33:16;36.25;;;20.67;;
56122;SDS011;42426;46.104;19.656;2022-12-10T10:35:50;36.17;;;20.35;;
56122;SDS011;42426;46.104;19.656;2022-12-10T10:38:20;31.20;;;21.75;;
56122;SDS011;42426;46.104;19.656;2022-12-10T10:40:54;36.10;;;22.33;;
56122;SDS011;42426;46.104;19.656;2022-12-10T10:43:26;36.15;;;22.95;;
56122;SDS011;42426;46.104;19.656;2022-12-10T10:46:12;32.72;;;22.83;;
56122;SDS011;42426;46.104;19.656;2022-12-10T10:48:38;36.63;;;22.45;;
56122;SDS011;42426;46.104;19.656;2022-12-10T10:53:42;32.08;;;20.70;;
56122;SDS011;42426;46.104;19.656;2022-12-10T10:56:10;37.53;;;22.02;;
56122;SDS011;42426;46.104;19.656;2022-12-10T10:58:50;33.38;;;19.85;;
56122;SDS011;42426;46.104;19.656;2022-12-10T11:02:29;28.65;;;19.13;;
56122;SDS011;42426;46.104;19.656;2022-12-10T11:04:37;31.83;;;19.60;;
56122;SDS011;42426;46.104;19.656;2022-12-10T11:07:19;29.70;;;18.80;;
56122;SDS011;42426;46.104;19.656;2022-12-10T11:10:00;29.23;;;17.75;;
56122;SDS011;42426;46.104;19.656;2022-12-10T11:12:39;28.63;;;16.30;;
56122;SDS011;42426;46.104;19.656;2022-12-10T11:15:29;27.15;;;17.52;;
56122;SDS011;42426;46.104;19.656;2022-12-10T11:17:58;29.23;;;18.45;;
56122;SDS011;42426;46.104;19.656;2022-12-10T11:20:32;26.42;;;15.13;;
56122;SDS011;42426;46.104;19.656;2022-12-10T11:23:08;25.98;;;15.63;;
56122;SDS011;42426;46.104;19.656;2022-12-10T11:59:41;27.65;;;18.55;;
56122;SDS011;42426;46.104;19.656;2022-12-10T12:03:27;19.92;;;13.52;;
56122;SDS011;42426;46.104;19.656;2022-12-10T12:13:41;17.25;;;11.75;;
56122;SDS011;42426;46.104;19.656;2022-12-10T12:16:14;17.25;;;11.90;;
56122;SDS011;42426;46.104;19.656;2022-12-10T12:18:44;15.90;;;10.98;;
56122;SDS011;42426;46.104;19.656;2022-12-10T12:21:12;17.00;;;11.90;;
56122;SDS011;42426;46.104;19.656;2022-12-10T12:23:56;19.38;;;13.50;;
56122;SDS011;42426;46.104;19.656;2022-12-10T12:26:35;26.73;;;15.85;;
56122;SDS011;42426;46.104;19.656;2022-12-10T12:29:08;26.00;;;15.57;;
56122;SDS011;42426;46.104;19.656;2022-12-10T12:31:38;19.23;;;13.07;;
56122;SDS011;42426;46.104;19.656;2022-12-10T12:37:08;19.05;;;13.27;;
56122;SDS011;42426;46.104;19.656;2022-12-10T12:39:38;21.35;;;13.07;;
56122;SDS011;42426;46.104;19.656;2022-12-10T12:44:45;23.23;;;12.85;;
56122;SDS011;42426;46.104;19.656;2022-12-10T12:49:40;21.13;;;13.38;;
56122;SDS011;42426;46.104;19.656;2022-12-10T12:54:52;21.77;;;13.70;;
56122;SDS011;42426;46.104;19.656;2022-12-10T12:57:26;18.77;;;13.48;;
56122;SDS011;42426;46.104;19.656;2022-12-10T13:00:09;22.77;;;13.45;;
56122;SDS011;42426;46.104;19.656;2022-12-10T13:05:28;24.50;;;15.95;;
56122;SDS011;42426;46.104;19.656;2022-12-10T13:10:43;25.55;;;16.08;;
56122;SDS011;42426;46.104;19.656;2022-12-10T13:15:43;25.05;;;15.43;;
56122;SDS011;42426;46.104;19.656;2022-12-10T13:20:45;26.40;;;15.20;;
56122;SDS011;42426;46.104;19.656;2022-12-10T13:36:12;27.45;;;17.55;;
56122;SDS011;42426;46.104;19.656;2022-12-10T13:38:39;29.27;;;17.60;;
56122;SDS011;42426;46.104;19.656;2022-12-10T13:41:06;22.35;;;15.05;;
56122;SDS011;42426;46.104;19.656;2022-12-10T13:43:51;23.85;;;17.20;;
56122;SDS011;42426;46.104;19.656;2022-12-10T13:49:28;26.20;;;16.05;;
56122;SDS011;42426;46.104;19.656;2022-12-10T13:57:07;28.52;;;15.25;;
56122;SDS011;42426;46.104;19.656;2022-12-10T13:59:41;27.73;;;18.02;;
56122;SDS011;42426;46.104;19.656;2022-12-10T14:07:50;26.38;;;18.08;;
56122;SDS011;42426;46.104;19.656;2022-12-10T14:10:18;26.40;;;16.30;;
56122;SDS011;42426;46.104;19.656;2022-12-10T14:12:47;30.10;;;19.27;;
56122;SDS011;42426;46.104;19.656;2022-12-10T14:15:16;26.65;;;18.27;;
56122;SDS011;42426;46.104;19.656;2022-12-10T14:17:44;32.55;;;19.35;;
56122;SDS011;42426;46.104;19.656;2022-12-10T14:20:14;27.60;;;17.55;;
56122;SDS011;42426;46.104;19.656;2022-12-10T14:22:46;24.88;;;13.43;;
56122;SDS011;42426;46.104;19.656;2022-12-10T14:25:22;25.17;;;16.55;;
56122;SDS011;42426;46.104;19.656;2022-12-10T14:27:49;26.52;;;16.75;;
56122;SDS011;42426;46.104;19.656;2022-12-10T14:30:24;24.52;;;15.38;;
56122;SDS011;42426;46.104;19.656;2022-12-10T14:32:53;20.63;;;12.98;;
56122;SDS011;42426;46.104;19.656;2022-12-10T14:35:24;19.80;;;13.30;;
56122;SDS011;42426;46.104;19.656;2022-12-10T14:37:50;21.52;;;13.60;;
56122;SDS011;42426;46.104;19.656;2022-12-10T14:40:24;28.13;;;16.15;;
56122;SDS011;42426;46.104;19.656;2022-12-10T14:42:53;19.00;;;11.93;;
56122;SDS011;42426;46.104;19.656;2022-12-10T14:45:21;15.75;;;11.05;;
56122;SDS011;42426;46.104;19.656;2022-12-10T14:47:47;15.20;;;10.40;;
56122;SDS011;42426;46.104;19.656;2022-12-10T14:50:15;18.23;;;11.38;;
56122;SDS011;42426;46.104;19.656;2022-12-10T14:52:42;14.95;;;9.52;;
56122;SDS011;42426;46.104;19.656;2022-12-10T14:55:15;16.08;;;10.75;;
56122;SDS011;42426;46.104;19.656;2022-12-10T14:57:44;19.85;;;12.45;;
56122;SDS011;42426;46.104;19.656;2022-12-10T15:00:14;14.77;;;9.52;;
56122;SDS011;42426;46.104;19.656;2022-12-10T15:02:43;15.45;;;9.82;;
56122;SDS011;42426;46.104;19.656;2022-12-10T15:05:15;11.73;;;9.00;;
56122;SDS011;42426;46.104;19.656;2022-12-10T15:07:42;14.40;;;9.60;;
56122;SDS011;42426;46.104;19.656;2022-12-10T15:10:17;15.25;;;8.35;;
56122;SDS011;42426;46.104;19.656;2022-12-10T15:12:45;15.35;;;7.85;;
56122;SDS011;42426;46.104;19.656;2022-12-10T15:15:14;10.07;;;6.38;;
56122;SDS011;42426;46.104;19.656;2022-12-10T15:20:20;14.40;;;7.28;;
56122;SDS011;42426;46.104;19.656;2022-12-10T15:25:19;10.68;;;7.32;;
56122;SDS011;42426;46.104;19.656;2022-12-10T15:27:53;10.00;;;7.78;;
56122;SDS011;42426;46.104;19.656;2022-12-10T15:30:23;11.88;;;8.35;;
56122;SDS011;42426;46.104;19.656;2022-12-10T15:32:51;12.35;;;8.27;;
56122;SDS011;42426;46.104;19.656;2022-12-10T15:35:18;22.52;;;13.07;;
56122;SDS011;42426;46.104;19.656;2022-12-10T15:37:52;16.00;;;10.73;;
56122;SDS011;42426;46.104;19.656;2022-12-10T15:40:26;15.48;;;8.00;;
56122;SDS011;42426;46.104;19.656;2022-12-10T15:42:55;15.13;;;9.48;;
56122;SDS011;42426;46.104;19.656;2022-12-10T15:45:23;17.15;;;9.23;;
56122;SDS011;42426;46.104;19.656;2022-12-10T15:47:51;17.08;;;9.75;;
56122;SDS011;42426;46.104;19.656;2022-12-10T15:50:17;16.42;;;9.82;;
56122;SDS011;42426;46.104;19.656;2022-12-10T15:52:44;14.70;;;9.25;;
56122;SDS011;42426;46.104;19.656;2022-12-10T15:55:11;14.40;;;9.75;;
56122;SDS011;42426;46.104;19.656;2022-12-10T15:57:38;17.08;;;11.40;;
56122;SDS011;42426;46.104;19.656;2022-12-10T16:00:20;19.58;;;12.60;;
56122;SDS011;42426;46.104;19.656;2022-12-10T16:03:02;19.25;;;11.63;;
56122;SDS011;42426;46.104;19.656;2022-12-10T16:05:29;24.50;;;14.68;;
56122;SDS011;42426;46.104;19.656;2022-12-10T16:07:58;22.98;;;12.95;;
56122;SDS011;42426;46.104;19.656;2022-12-10T16:10:26;18.80;;;11.57;;
56122;SDS011;42426;46.104;19.656;2022-12-10T16:15:26;26.00;;;14.60;;
56122;SDS011;42426;46.104;19.656;2022-12-10T16:17:53;28.92;;;16.48;;
56122;SDS011;42426;46.104;19.656;2022-12-10T16:22:46;22.80;;;13.93;;
56122;SDS011;42426;46.104;19.656;2022-12-10T16:25:12;16.30;;;10.25;;
56122;SDS011;42426;46.104;19.656;2022-12-10T16:27:39;13.35;;;8.65;;
56122;SDS011;42426;46.104;19.656;2022-12-10T16:32:46;19.92;;;12.77;;
56122;SDS011;42426;46.104;19.656;2022-12-10T16:35:12;26.05;;;14.90;;
56122;SDS011;42426;46.104;19.656;2022-12-10T16:37:48;21.33;;;12.93;;
56122;SDS011;42426;46.104;19.656;2022-12-10T16:40:19;17.30;;;11.75;;
56122;SDS011;42426;46.104;19.656;2022-12-10T16:42:45;16.48;;;10.65;;
56122;SDS011;42426;46.104;19.656;2022-12-10T16:45:33;20.73;;;12.40;;
56122;SDS011;42426;46.104;19.656;2022-12-10T16:48:00;18.92;;;11.40;;
56122;SDS011;42426;46.104;19.656;2022-12-10T16:50:27;17.33;;;11.23;;
56122;SDS011;42426;46.104;19.656;2022-12-10T16:52:54;18.63;;;11.80;;